30°C Temp
19°C Dewpoint
52% Humidity
Temperature
19 KM/H
12 MPH
10 KTS
250°
West South
West

Wind Speed
Partly Cloudy
Conditions
Pressure 1013.88 (hPa) - 29.94 (in)
Visibility 6.0 (mi) - 9.7 (km)

Current Conditions
LIRQ
Location 35(km)
Metar :LIRQ 211420Z 25010KT 9999 FEW045 30/19 Q1014
Fri 21st June 16:20 pm

Airport
  Metar Aviation API Data Provided by https://www.checkwx.com/ PHP scripts by weather34.com ©2024